Terminal Aerodrome Forecast
Issued by NWS Chicago, IL

Home | Current Version | Previous Version | Text Only | Print | Product List | Glossary On
Versions: 1 2 3 4 5 6 7 8 9 10 11 12 13 14 15 16 17 18 19 20 21 22 23 24 25 26
352
FTUS43 KLOT 111738
TAFRFD
TAF
KRFD 111738Z 1118/1218 34005KT P6SM SKC
     FM112200 29007KT P6SM FEW150
     FM120200 25007KT P6SM BKN100
     FM120900 27013KT P6SM -SN BKN030
     FM121500 30014G20KT P6SM SCT030 BKN040=

USA.gov is the U.S. government's official web portal to all federal, state and local government web resources and services.